Time;durP1;ratioP1;P1;durP2;ratioP2;P2;SDS_P1;SDS_P2;PMS_P1;PMS_P2;Temp;Humidity;BMP_temperature;BMP_pressure;BME280_temperature;BME280_humidity;BME280_pressure;Samples;Min_cycle;Max_cycle;Signal;HPM_P1;HPM_P2
2024/01/26 00:01:44;;;;;;;0.57;0.57;;;;;;;6.66;nan;99707.34;5052486;28;20262;-68
2024/01/26 00:04:11;;;;;;;2.17;0.87;;;;;;;6.65;nan;99714.16;5052712;28;20197;-68
2024/01/26 00:06:39;;;;;;;0.60;0.60;;;;;;;6.61;nan;99709.09;5052722;28;20197;-68
2024/01/26 00:09:10;;;;;;;0.80;0.80;;;;;;;6.63;nan;99718.41;5052789;28;20207;-68
2024/01/26 00:11:37;;;;;;;0.90;0.90;;;;;;;6.59;nan;99698.09;5052457;28;20201;-68
2024/01/26 00:14:04;;;;;;;1.10;1.10;;;;;;;6.61;nan;99711.66;5053093;28;20203;-68
2024/01/26 00:16:31;;;;;;;0.70;0.70;;;;;;;6.64;nan;99706.53;5052243;28;20193;-68
2024/01/26 00:18:58;;;;;;;0.70;0.70;;;;;;;6.39;nan;99671.97;5052385;28;20213;-68
2024/01/26 00:21:25;;;;;;;0.53;0.53;;;;;;;6.63;nan;99707.38;5052678;28;20247;-68
2024/01/26 00:23:53;;;;;;;2.97;0.60;;;;;;;6.61;nan;99707.41;5052399;28;20208;-68
2024/01/26 00:26:20;;;;;;;1.30;1.30;;;;;;;6.66;nan;99705.66;5052563;28;20264;-68
2024/01/26 00:28:46;;;;;;;0.50;0.50;;;;;;;6.79;nan;99721.66;5052552;28;20205;-68
2024/01/26 00:31:16;;;;;;;0.70;0.70;;;;;;;6.80;nan;99721.66;5052675;28;20223;-68
2024/01/26 00:33:43;;;;;;;0.60;0.60;;;;;;;6.88;nan;99725.84;5052382;28;20259;-68
2024/01/26 00:36:11;;;;;;;1.33;1.33;;;;;;;6.84;nan;99728.41;5051854;28;20193;-68
2024/01/26 00:38:38;;;;;;;1.03;1.03;;;;;;;6.92;nan;99730.00;5051238;28;20217;-68
2024/01/26 00:41:06;;;;;;;0.70;0.70;;;;;;;6.87;nan;99730.09;5050566;28;20818;-68
2024/01/26 00:43:33;;;;;;;0.77;0.77;;;;;;;6.89;nan;99723.25;5051652;28;20209;-68
2024/01/26 00:46:00;;;;;;;0.50;0.50;;;;;;;6.93;nan;99736.81;5051816;28;20193;-68
2024/01/26 00:48:27;;;;;;;1.00;0.90;;;;;;;6.91;nan;99736.84;5052097;28;20197;-68
2024/01/26 00:50:54;;;;;;;0.70;0.70;;;;;;;6.92;nan;99732.56;5051926;28;20259;-68
2024/01/26 00:53:21;;;;;;;0.60;0.60;;;;;;;6.88;nan;99737.69;5051210;28;20734;-68
2024/01/26 00:55:49;;;;;;;0.60;0.60;;;;;;;6.90;nan;99735.16;5052176;28;20246;-68
2024/01/26 00:58:17;;;;;;;0.60;0.60;;;;;;;6.86;nan;99731.78;5051569;28;20626;-68
2024/01/26 01:00:44;;;;;;;0.53;0.53;;;;;;;6.87;nan;99732.63;5051412;28;20196;-68
2024/01/26 01:03:10;;;;;;;0.53;0.53;;;;;;;6.86;nan;99728.38;5051832;28;20754;-68
2024/01/26 01:05:38;;;;;;;2.10;0.80;;;;;;;6.85;nan;99726.69;5051809;28;20206;-68
2024/01/26 01:08:05;;;;;;;0.80;0.80;;;;;;;6.84;nan;99732.66;5051052;28;20258;-68
2024/01/26 01:10:32;;;;;;;0.87;0.87;;;;;;;6.83;nan;99741.16;5050894;28;20188;-68
2024/01/26 01:12:59;;;;;;;0.97;0.73;;;;;;;6.83;nan;99738.59;5051136;28;20204;-68
2024/01/26 01:15:29;;;;;;;0.60;0.60;;;;;;;6.82;nan;99737.75;5051439;28;20200;-68
2024/01/26 01:17:55;;;;;;;0.60;0.60;;;;;;;6.85;nan;99731.78;5050412;28;20267;-68
2024/01/26 01:20:22;;;;;;;0.60;0.60;;;;;;;6.83;nan;99738.59;5051358;28;20741;-68
2024/01/26 01:22:49;;;;;;;0.80;0.80;;;;;;;6.78;nan;99735.28;5050864;28;20197;-68
2024/01/26 01:25:16;;;;;;;0.60;0.60;;;;;;;6.76;nan;99736.97;5051202;28;20209;-68
2024/01/26 01:27:43;;;;;;;0.73;0.73;;;;;;;6.71;nan;99728.53;5051480;28;20200;-68
2024/01/26 01:30:10;;;;;;;0.80;0.80;;;;;;;6.68;nan;99734.53;5051375;28;20204;-68
2024/01/26 01:32:38;;;;;;;0.80;0.80;;;;;;;6.66;nan;99730.28;5049331;28;20648;-68
2024/01/26 01:35:05;;;;;;;0.60;0.60;;;;;;;6.65;nan;99733.69;5051497;28;20201;-68
2024/01/26 01:37:32;;;;;;;0.57;0.57;;;;;;;6.60;nan;99722.69;5046570;28;20200;-68
2024/01/26 01:39:59;;;;;;;0.50;0.50;;;;;;;6.62;nan;99728.63;5051216;28;20213;-68
2024/01/26 01:42:26;;;;;;;0.63;0.63;;;;;;;6.58;nan;99732.06;5049373;28;20251;-68
2024/01/26 01:44:52;;;;;;;0.70;0.70;;;;;;;6.52;nan;99727.03;5048418;28;20197;-68
2024/01/26 01:47:19;;;;;;;0.80;0.80;;;;;;;6.51;nan;99735.50;5051004;28;20255;-68
2024/01/26 01:49:47;;;;;;;0.70;0.70;;;;;;;6.56;nan;99726.97;5051133;28;20193;-68
2024/01/26 01:52:16;;;;;;;0.50;0.50;;;;;;;6.63;nan;99745.59;5049801;28;20618;-68
2024/01/26 01:54:43;;;;;;;1.53;1.53;;;;;;;6.54;nan;99731.25;5050535;28;20259;-68
2024/01/26 01:57:11;;;;;;;0.77;0.70;;;;;;;6.50;nan;99719.38;5050288;28;20201;-68
2024/01/26 01:59:38;;;;;;;0.60;0.60;;;;;;;6.64;nan;99743.03;5050657;28;20247;-68
2024/01/26 02:02:05;;;;;;;1.00;1.00;;;;;;;6.61;nan;99737.13;5050836;28;20669;-68
2024/01/26 02:04:32;;;;;;;0.53;0.53;;;;;;;6.52;nan;99711.75;5050744;28;20196;-68
2024/01/26 02:07:02;;;;;;;0.63;0.63;;;;;;;6.71;nan;99748.91;5050525;28;20251;-68
2024/01/26 02:09:29;;;;;;;0.60;0.60;;;;;;;6.69;nan;99742.97;5050923;28;20259;-68
2024/01/26 02:11:56;;;;;;;0.57;0.57;;;;;;;6.64;nan;99734.53;5050113;28;20679;-68
2024/01/26 02:14:25;;;;;;;0.67;0.67;;;;;;;6.66;nan;99755.75;5047327;28;20208;-68
2024/01/26 02:16:56;;;;;;;1.17;1.17;;;;;;;6.55;nan;99737.19;5049767;28;20289;-68
2024/01/26 02:19:23;;;;;;;1.90;0.80;;;;;;;6.69;nan;99748.91;5050388;28;20255;-68
2024/01/26 02:21:50;;;;;;;0.90;0.90;;;;;;;6.68;nan;99747.25;5050233;28;20254;-68
2024/01/26 02:24:18;;;;;;;1.63;1.20;;;;;;;6.77;nan;99746.31;5050261;28;20201;-68
2024/01/26 02:26:45;;;;;;;0.70;0.70;;;;;;;6.80;nan;99744.59;5050256;28;20201;-68
2024/01/26 02:29:12;;;;;;;0.73;0.73;;;;;;;6.87;nan;99750.47;5050657;28;20809;-68
2024/01/26 02:31:42;;;;;;;0.60;0.60;;;;;;;6.87;nan;99747.91;5050206;28;20254;-68
2024/01/26 02:34:11;;;;;;;1.37;1.37;;;;;;;6.92;nan;99748.69;5050388;28;20287;-68
2024/01/26 02:36:38;;;;;;;0.87;0.60;;;;;;;6.95;nan;99743.56;5050257;28;20199;-68
2024/01/26 02:39:06;;;;;;;0.70;0.70;;;;;;;7.03;nan;99757.09;5049784;28;20224;-68
2024/01/26 02:41:35;;;;;;;0.90;0.90;;;;;;;7.17;nan;99755.22;5050176;28;20228;-68
2024/01/26 02:44:02;;;;;;;0.50;0.50;;;;;;;7.17;nan;99755.22;5049427;28;20254;-68
2024/01/26 02:46:29;;;;;;;0.60;0.60;;;;;;;7.19;nan;99758.63;5049938;28;20738;-68
2024/01/26 02:48:56;;;;;;;0.70;0.70;;;;;;;7.15;nan;99744.22;5049812;28;20200;-68
2024/01/26 02:51:23;;;;;;;0.53;0.53;;;;;;;7.12;nan;99759.56;5050130;28;20258;-68
2024/01/26 02:53:50;;;;;;;0.90;0.90;;;;;;;7.16;nan;99760.38;5050123;28;20250;-68
2024/01/26 02:56:16;;;;;;;0.60;0.60;;;;;;;7.13;nan;99763.78;5050093;28;20197;-68
2024/01/26 02:58:44;;;;;;;0.50;0.50;;;;;;;7.11;nan;99757.84;5050121;28;20699;-68
2024/01/26 03:01:11;;;;;;;0.73;0.73;;;;;;;7.12;nan;99762.09;5049661;28;20212;-68
2024/01/26 03:03:38;;;;;;;0.60;0.60;;;;;;;7.09;nan;99777.44;5048394;28;20254;-68
2024/01/26 03:06:06;;;;;;;0.60;0.60;;;;;;;7.14;nan;99770.56;5048108;28;20204;-69
2024/01/26 03:08:33;;;;;;;0.70;0.70;;;;;;;7.19;nan;99779.03;5049963;28;20196;-68
2024/01/26 03:11:00;;;;;;;0.77;0.77;;;;;;;7.20;nan;99775.63;5049967;28;20204;-68
2024/01/26 03:13:26;;;;;;;0.50;0.50;;;;;;;7.18;nan;99777.31;5050022;28;20259;-68
2024/01/26 03:15:55;;;;;;;0.50;0.50;;;;;;;7.17;nan;99774.81;5049687;28;20196;-68
2024/01/26 03:18:22;;;;;;;0.50;0.50;;;;;;;7.11;nan;99778.25;5049530;28;20224;-68
2024/01/26 03:20:49;;;;;;;1.53;0.70;;;;;;;7.03;nan;99782.59;5049475;28;20696;-68
2024/01/26 03:23:15;;;;;;;0.60;0.60;;;;;;;6.97;nan;99772.47;5047876;28;20650;-67
2024/01/26 03:25:43;;;;;;;0.50;0.50;;;;;;;6.91;nan;99780.16;5049807;28;20231;-68
2024/01/26 03:28:11;;;;;;;1.33;1.33;;;;;;;6.79;nan;99770.06;5049470;28;20200;-68
2024/01/26 03:30:40;;;;;;;0.50;0.50;;;;;;;6.85;nan;99778.50;5050242;28;20279;-68
2024/01/26 03:33:08;;;;;;;0.50;0.50;;;;;;;6.90;nan;99790.38;5052186;28;20201;-68
2024/01/26 03:35:36;;;;;;;5.43;1.83;;;;;;;6.72;nan;99776.09;5052991;28;20291;-68
2024/01/26 03:38:03;;;;;;;0.83;0.83;;;;;;;6.85;nan;99787.84;5053610;28;20204;-68
2024/01/26 03:40:29;;;;;;;0.60;0.60;;;;;;;6.84;nan;99791.28;5051924;28;20216;-68
2024/01/26 03:42:56;;;;;;;0.90;0.90;;;;;;;6.83;nan;99794.66;5051664;28;20213;-68
2024/01/26 03:45:23;;;;;;;0.77;0.60;;;;;;;6.83;nan;99797.22;5052767;28;20207;-68
2024/01/26 03:47:49;;;;;;;0.70;0.70;;;;;;;6.78;nan;99798.97;5053121;28;20193;-68
2024/01/26 03:50:18;;;;;;;0.60;0.60;;;;;;;6.75;nan;99806.66;5053220;28;20201;-69
2024/01/26 03:52:45;;;;;;;0.90;0.90;;;;;;;6.81;nan;99811.69;5052817;28;20262;-68
2024/01/26 03:55:11;;;;;;;0.50;0.50;;;;;;;6.80;nan;99815.06;5053341;28;20212;-68
2024/01/26 03:57:38;;;;;;;0.80;0.80;;;;;;;6.75;nan;99799.00;5051559;28;20727;-68
2024/01/26 04:00:05;;;;;;;0.97;0.77;;;;;;;6.77;nan;99802.38;5053092;28;20221;-68
2024/01/26 04:02:32;;;;;;;0.50;0.50;;;;;;;6.81;nan;99806.59;5052664;28;20196;-68
2024/01/26 04:04:58;;;;;;;1.23;1.23;;;;;;;6.83;nan;99800.63;5052700;28;20674;-68
2024/01/26 04:07:26;;;;;;;0.70;0.70;;;;;;;6.81;nan;99797.25;5053350;28;20204;-68
2024/01/26 04:09:53;;;;;;;0.50;0.50;;;;;;;6.81;nan;99791.31;5052984;28;20192;-68
2024/01/26 04:12:20;;;;;;;0.53;0.53;;;;;;;6.79;nan;99795.53;5049997;28;20200;-68
2024/01/26 04:14:47;;;;;;;0.77;0.77;;;;;;;6.63;nan;99777.00;5051784;28;20203;-68
2024/01/26 04:17:14;;;;;;;1.07;0.90;;;;;;;6.70;nan;99798.19;5051024;28;20274;-68
2024/01/26 04:19:40;;;;;;;0.50;0.50;;;;;;;6.66;nan;99801.59;5053354;28;20216;-68
2024/01/26 04:22:07;;;;;;;0.93;0.93;;;;;;;6.64;nan;99803.31;5052445;28;20197;-68
2024/01/26 04:24:36;;;;;;;1.00;1.00;;;;;;;6.62;nan;99794.84;5050386;28;20208;-68
2024/01/26 04:27:03;;;;;;;0.47;0.47;;;;;;;6.57;nan;99797.44;5051458;28;20630;-68
2024/01/26 04:29:30;;;;;;;0.70;0.70;;;;;;;6.55;nan;99798.31;5052469;28;20230;-68
2024/01/26 04:31:56;;;;;;;0.73;0.73;;;;;;;6.49;nan;99806.00;5052367;28;20251;-68
2024/01/26 04:34:23;;;;;;;0.87;0.87;;;;;;;6.46;nan;99804.31;5050424;28;20196;-68
2024/01/26 04:36:51;;;;;;;0.50;0.50;;;;;;;6.43;nan;99803.50;5052325;28;20209;-69
2024/01/26 04:39:18;;;;;;;0.70;0.70;;;;;;;6.37;nan;99803.50;5052091;28;20223;-68
2024/01/26 04:41:46;;;;;;;0.50;0.50;;;;;;;6.30;nan;99793.38;5052538;28;20213;-68
2024/01/26 04:44:12;;;;;;;0.97;0.97;;;;;;;6.36;nan;99806.94;5051184;28;20205;-68
2024/01/26 04:46:39;;;;;;;0.70;0.70;;;;;;;6.38;nan;99807.75;5047533;28;20212;-69
2024/01/26 04:49:06;;;;;;;1.77;0.63;;;;;;;6.34;nan;99810.31;5046067;28;20288;-67
2024/01/26 04:51:33;;;;;;;0.80;0.80;;;;;;;6.33;nan;99813.72;5044405;28;20658;-67
2024/01/26 04:53:59;;;;;;;0.50;0.50;;;;;;;6.34;nan;99810.31;5049260;28;20212;-67
2024/01/26 04:56:26;;;;;;;0.50;0.50;;;;;;;6.36;nan;99806.94;5048436;28;20262;-69
2024/01/26 04:59:02;;;;;;;0.60;0.60;;;;;;;6.31;nan;99804.41;5050862;28;20207;-67
2024/01/26 05:01:29;;;;;;;0.53;0.53;;;;;;;6.15;nan;99782.44;5049364;28;20216;-67
2024/01/26 05:03:56;;;;;;;0.53;0.53;;;;;;;6.19;nan;99805.34;5051199;28;20635;-68
2024/01/26 05:06:23;;;;;;;0.70;0.70;;;;;;;6.14;nan;99803.69;5051533;28;20200;-68
2024/01/26 05:08:50;;;;;;;0.63;0.63;;;;;;;6.09;nan;99793.53;5051521;28;20208;-67
2024/01/26 05:11:18;;;;;;;0.50;0.50;;;;;;;6.07;nan;99797.78;5051932;28;20197;-67
2024/01/26 05:13:45;;;;;;;0.87;0.87;;;;;;;6.05;nan;99791.84;5050026;28;20206;-68
2024/01/26 05:16:13;;;;;;;0.73;0.73;;;;;;;6.07;nan;99799.47;5050270;28;20197;-67
2024/01/26 05:18:40;;;;;;;0.70;0.70;;;;;;;6.03;nan;99788.47;5051228;28;20266;-67
2024/01/26 05:21:07;;;;;;;0.50;0.50;;;;;;;6.05;nan;99791.84;5049619;28;20623;-68
2024/01/26 05:23:34;;;;;;;1.03;1.03;;;;;;;6.08;nan;99796.91;5051746;28;20207;-67
2024/01/26 05:26:01;;;;;;;0.70;0.70;;;;;;;6.10;nan;99799.47;5048505;28;20251;-67
2024/01/26 05:28:28;;;;;;;0.60;0.60;;;;;;;6.14;nan;99796.88;5049913;28;20208;-67
2024/01/26 05:30:55;;;;;;;0.70;0.70;;;;;;;6.13;nan;99797.75;5051212;28;20634;-67
2024/01/26 05:33:23;;;;;;;0.67;0.67;;;;;;;6.12;nan;99798.59;5048875;28;20192;-67
2024/01/26 05:35:49;;;;;;;0.70;0.70;;;;;;;6.17;nan;99798.56;5050486;28;20270;-67
2024/01/26 05:38:16;;;;;;;0.40;0.40;;;;;;;6.19;nan;99800.25;5045119;28;20197;-67
2024/01/26 05:40:43;;;;;;;0.60;0.60;;;;;;;6.20;nan;99801.91;5051058;28;20278;-66
2024/01/26 05:43:09;;;;;;;0.70;0.70;;;;;;;6.19;nan;99807.88;5049633;28;20262;-65
2024/01/26 05:45:36;;;;;;;0.50;0.50;;;;;;;6.19;nan;99810.44;5050052;28;20192;-65
2024/01/26 05:48:03;;;;;;;1.33;1.33;;;;;;;6.17;nan;99817.22;5050949;28;20200;-65
2024/01/26 05:50:31;;;;;;;1.27;1.27;;;;;;;6.23;nan;99817.22;5050918;28;20261;-66
2024/01/26 05:52:58;;;;;;;0.50;0.50;;;;;;;6.23;nan;99817.22;5049827;28;20201;-65
2024/01/26 05:55:25;;;;;;;0.93;0.93;;;;;;;6.20;nan;99821.47;5047517;28;20263;-65
2024/01/26 05:57:51;;;;;;;0.60;0.60;;;;;;;6.19;nan;99828.25;5051036;28;20203;-65
2024/01/26 06:00:18;;;;;;;0.50;0.50;;;;;;;6.15;nan;99838.44;5048716;28;20221;-65
2024/01/26 06:02:45;;;;;;;0.57;0.57;;;;;;;6.12;nan;99848.66;5050779;28;20734;-65
2024/01/26 06:05:12;;;;;;;1.10;1.10;;;;;;;6.10;nan;99840.19;5050279;28;20196;-65
2024/01/26 06:07:40;;;;;;;0.70;0.70;;;;;;;6.10;nan;99841.03;5050767;28;20208;-65
2024/01/26 06:10:08;;;;;;;0.60;0.60;;;;;;;6.12;nan;99841.88;5050641;28;20626;-65
2024/01/26 06:12:39;;;;;;;0.70;0.70;;;;;;;6.14;nan;99844.41;5050868;28;20660;-65
2024/01/26 06:15:08;;;;;;;0.60;0.60;;;;;;;6.18;nan;99846.91;5047413;28;20200;-65
2024/01/26 06:17:35;;;;;;;0.50;0.50;;;;;;;6.22;nan;99856.22;5046989;28;20227;-65
2024/01/26 06:20:03;;;;;;;0.50;0.50;;;;;;;6.28;nan;99856.19;5050589;28;20196;-68
2024/01/26 06:22:30;;;;;;;0.50;0.50;;;;;;;6.30;nan;99844.28;5049635;28;20197;-65
2024/01/26 06:24:58;;;;;;;0.70;0.70;;;;;;;6.47;nan;99872.22;5045652;28;20212;-66
2024/01/26 06:27:24;;;;;;;0.60;0.60;;;;;;;6.50;nan;99876.44;5049473;28;20201;-68
2024/01/26 06:29:51;;;;;;;0.67;0.67;;;;;;;6.53;nan;99877.25;5048436;28;20258;-66
2024/01/26 06:32:19;;;;;;;0.43;0.43;;;;;;;6.58;nan;99874.69;5046780;28;20205;-65
2024/01/26 06:34:46;;;;;;;0.87;0.87;;;;;;;6.61;nan;99879.78;5046754;28;20553;-65
2024/01/26 06:37:13;;;;;;;0.60;0.60;;;;;;;6.59;nan;99886.59;5047249;28;20205;-66
2024/01/26 06:39:39;;;;;;;0.40;0.40;;;;;;;6.68;nan;99887.38;5048936;28;20207;-65
2024/01/26 06:42:07;;;;;;;0.60;0.60;;;;;;;6.74;nan;99886.47;5049613;28;20224;-68
2024/01/26 06:44:35;;;;;;;0.70;0.70;;;;;;;6.82;nan;99884.69;5049003;28;20251;-64
2024/01/26 06:47:01;;;;;;;9.47;1.10;;;;;;;6.86;nan;99886.38;5049056;28;20240;-64
2024/01/26 06:49:28;;;;;;;0.80;0.80;;;;;;;6.91;nan;99889.75;5049152;28;20212;-64
2024/01/26 06:51:55;;;;;;;0.50;0.50;;;;;;;6.95;nan;99891.41;5049714;28;20208;-65
2024/01/26 06:54:21;;;;;;;0.77;0.77;;;;;;;7.05;nan;99887.06;5046515;28;21024;-70
2024/01/26 06:56:48;;;;;;;3.20;0.80;;;;;;;7.09;nan;99893.84;5046009;28;20200;-69
2024/01/26 06:59:16;;;;;;;0.60;0.60;;;;;;;7.19;nan;99891.22;5042808;28;20212;-69
2024/01/26 07:01:43;;;;;;;0.57;0.57;;;;;;;7.22;nan;99887.78;5045270;28;20217;-69
2024/01/26 07:04:10;;;;;;;0.83;0.73;;;;;;;7.32;nan;99897.91;5045006;28;20200;-69
2024/01/26 07:06:37;;;;;;;0.50;0.50;;;;;;;7.35;nan;99887.66;5047411;28;20200;-69
2024/01/26 07:09:03;;;;;;;0.50;0.50;;;;;;;7.46;nan;99890.13;5052107;28;20208;-69
2024/01/26 07:11:30;;;;;;;0.70;0.70;;;;;;;7.49;nan;99889.25;5053439;28;20267;-69
2024/01/26 07:13:57;;;;;;;0.60;0.60;;;;;;;7.52;nan;99879.84;5052011;28;20205;-69
2024/01/26 07:16:25;;;;;;;0.50;0.50;;;;;;;7.57;nan;99883.19;5053656;28;20201;-68
2024/01/26 07:18:51;;;;;;;1.07;0.83;;;;;;;7.62;nan;99875.50;5051482;28;20680;-69
2024/01/26 07:21:19;;;;;;;0.80;0.80;;;;;;;7.67;nan;99878.84;5051511;28;20295;-69
2024/01/26 07:23:46;;;;;;;0.73;0.73;;;;;;;7.72;nan;99885.56;5053777;28;20200;-69
2024/01/26 07:26:18;;;;;;;0.80;0.80;;;;;;;7.75;nan;99885.56;5053612;28;20200;-69
2024/01/26 07:28:45;;;;;;;0.50;0.50;;;;;;;7.72;nan;99872.00;5051842;28;20196;-69
2024/01/26 07:31:12;;;;;;;0.50;0.50;;;;;;;7.85;nan;99888.84;5053857;28;20630;-69
2024/01/26 07:33:40;;;;;;;1.00;0.80;;;;;;;7.77;nan;99875.31;5053973;28;20201;-69
2024/01/26 07:36:07;;;;;;;0.50;0.50;;;;;;;7.95;nan;99894.69;5053503;28;20197;-66
2024/01/26 07:38:34;;;;;;;0.60;0.60;;;;;;;8.01;nan;99900.56;5048379;28;20630;-67
2024/01/26 07:41:01;;;;;;;1.63;1.27;;;;;;;8.05;nan;99896.25;5053195;28;20217;-67
2024/01/26 07:43:27;;;;;;;0.97;0.97;;;;;;;8.13;nan;99902.97;5053594;28;20197;-67
2024/01/26 07:45:54;;;;;;;0.63;0.63;;;;;;;8.20;nan;99902.03;5052946;28;20579;-65
2024/01/26 07:48:21;;;;;;;0.60;0.60;;;;;;;8.26;nan;99901.97;5053219;28;20196;-67
2024/01/26 07:50:49;;;;;;;0.50;0.50;;;;;;;8.36;nan;99907.81;5052969;28;20200;-69
2024/01/26 07:53:15;;;;;;;1.93;1.83;;;;;;;8.40;nan;99905.19;5053397;28;20201;-69
2024/01/26 07:55:42;;;;;;;0.80;0.80;;;;;;;8.53;nan;99902.50;5053291;28;20262;-69
2024/01/26 07:58:09;;;;;;;0.85;0.85;;;;;;;8.67;nan;99903.13;5050021;28;20443;-70
2024/01/26 08:00:35;;;;;;;3.27;0.67;;;;;;;8.83;nan;99904.59;5050313;28;20211;-70
2024/01/26 08:03:02;;;;;;;0.70;0.70;;;;;;;8.94;nan;99907.84;5050798;28;20205;-70
2024/01/26 08:05:29;;;;;;;1.00;1.00;;;;;;;9.01;nan;99899.22;5050797;28;20208;-70
2024/01/26 08:07:57;;;;;;;5.73;0.80;;;;;;;9.17;nan;99889.56;5050527;28;20266;-69
2024/01/26 08:10:24;;;;;;;0.50;0.50;;;;;;;9.30;nan;99893.63;5049586;28;20664;-68
2024/01/26 08:12:51;;;;;;;1.50;0.63;;;;;;;9.38;nan;99884.91;5050575;28;20201;-68
2024/01/26 08:15:18;;;;;;;1.13;1.13;;;;;;;9.43;nan;99888.22;5047290;28;20204;-70
2024/01/26 08:17:44;;;;;;;1.63;1.53;;;;;;;9.49;nan;99880.47;5050252;28;20864;-68
2024/01/26 08:20:12;;;;;;;6.03;1.13;;;;;;;9.59;nan;99887.97;5048864;28;20204;-68
2024/01/26 08:22:39;;;;;;;1.27;0.93;;;;;;;9.68;nan;99888.66;5050405;28;20282;-68
2024/01/26 08:25:09;;;;;;;0.50;0.50;;;;;;;9.69;nan;99884.38;5050923;28;20232;-69
2024/01/26 08:27:36;;;;;;;0.50;0.50;;;;;;;9.78;nan;99887.59;5049803;28;20694;-69
2024/01/26 08:30:04;;;;;;;0.63;0.63;;;;;;;9.79;nan;99891.00;5049146;28;20224;-69
2024/01/26 08:32:31;;;;;;;4.63;1.17;;;;;;;9.82;nan;99890.94;5050076;28;20235;-69
2024/01/26 08:34:57;;;;;;;0.50;0.50;;;;;;;9.85;nan;99896.00;5052422;28;20733;-69
2024/01/26 08:37:24;;;;;;;0.50;0.50;;;;;;;9.94;nan;99890.69;5051257;28;20204;-68
2024/01/26 08:39:51;;;;;;;1.23;1.23;;;;;;;9.98;nan;99894.91;5051497;28;20258;-68
2024/01/26 08:42:19;;;;;;;0.57;0.57;;;;;;;10.04;nan;99902.47;5050239;28;20229;-69
2024/01/26 08:44:46;;;;;;;0.60;0.60;;;;;;;9.97;nan;99888.94;5050514;28;20205;-68
2024/01/26 08:47:12;;;;;;;0.50;0.50;;;;;;;10.04;nan;99902.47;5051712;28;20213;-69
2024/01/26 08:49:39;;;;;;;0.87;0.83;;;;;;;10.16;nan;99902.22;5049636;28;20572;-71
2024/01/26 08:52:06;;;;;;;0.67;0.67;;;;;;;10.25;nan;99902.03;5051688;28;20209;-68
2024/01/26 08:54:33;;;;;;;0.70;0.70;;;;;;;10.17;nan;99898.81;5050755;28;20677;-68
2024/01/26 08:56:59;;;;;;;7.53;1.33;;;;;;;10.16;nan;99896.25;5049832;28;20259;-69
2024/01/26 08:59:28;;;;;;;0.53;0.53;;;;;;;10.21;nan;99908.09;5050330;28;20254;-68
2024/01/26 09:01:55;;;;;;;0.60;0.60;;;;;;;10.28;nan;99909.66;5051748;28;20220;-68
2024/01/26 09:04:22;;;;;;;0.77;0.77;;;;;;;10.31;nan;99907.03;5051779;28;20254;-70
2024/01/26 09:06:48;;;;;;;0.80;0.80;;;;;;;10.39;nan;99910.28;5051568;28;20633;-67
2024/01/26 09:09:15;;;;;;;0.47;0.47;;;;;;;10.56;nan;99911.66;5051035;28;20715;-68
2024/01/26 09:11:42;;;;;;;0.70;0.70;;;;;;;10.58;nan;99909.88;5049436;28;20201;-67
2024/01/26 09:14:09;;;;;;;1.90;1.17;;;;;;;10.61;nan;99914.94;5048564;28;20728;-68
2024/01/26 09:16:38;;;;;;;1.00;1.00;;;;;;;10.68;nan;99906.25;5051417;28;20267;-67
2024/01/26 09:19:04;;;;;;;0.63;0.63;;;;;;;10.70;nan;99894.22;5051658;28;20200;-68
2024/01/26 09:21:31;;;;;;;0.60;0.60;;;;;;;10.75;nan;99902.66;5049656;28;20227;-68
2024/01/26 09:23:59;;;;;;;0.60;0.60;;;;;;;10.76;nan;99904.38;5050790;28;20696;-68
2024/01/26 09:26:26;;;;;;;0.63;0.50;;;;;;;10.79;nan;99894.03;5051801;28;20203;-68
2024/01/26 09:28:53;;;;;;;0.73;0.73;;;;;;;10.86;nan;99895.56;5047993;28;20201;-70
2024/01/26 09:31:19;;;;;;;0.70;0.70;;;;;;;10.95;nan;99885.09;5048199;28;20201;-70
2024/01/26 09:33:48;;;;;;;0.80;0.80;;;;;;;10.96;nan;99876.50;5047776;28;20232;-68
2024/01/26 09:36:15;;;;;;;0.60;0.60;;;;;;;11.01;nan;99878.09;5045136;28;20240;-69
2024/01/26 09:38:42;;;;;;;0.83;0.83;;;;;;;10.99;nan;99873.88;5046208;28;20205;-70
2024/01/26 09:41:08;;;;;;;1.50;1.03;;;;;;;11.03;nan;99863.50;5049413;28;20278;-69
2024/01/26 09:43:35;;;;;;;1.30;1.20;;;;;;;11.10;nan;99856.50;5050198;28;20251;-69
2024/01/26 09:46:04;;;;;;;0.70;0.70;;;;;;;11.12;nan;99852.16;5050819;28;20258;-69
2024/01/26 09:48:33;;;;;;;0.70;0.70;;;;;;;11.14;nan;99850.41;5051466;28;20207;-70
2024/01/26 09:51:02;;;;;;;0.83;0.83;;;;;;;11.12;nan;99841.03;5049559;28;20201;-70
2024/01/26 09:53:30;;;;;;;0.53;0.53;;;;;;;11.14;nan;99840.16;5050011;28;20557;-70
2024/01/26 09:55:59;;;;;;;2.87;1.30;;;;;;;11.28;nan;99832.91;5050065;28;20201;-70
2024/01/26 09:58:26;;;;;;;0.90;0.90;;;;;;;11.36;nan;99833.56;5049783;28;20193;-70
2024/01/26 10:00:55;;;;;;;1.33;0.70;;;;;;;11.33;nan;99833.66;5049804;28;20253;-69
2024/01/26 10:03:24;;;;;;;0.80;0.80;;;;;;;11.10;nan;99802.63;5049445;28;20913;-69
2024/01/26 10:05:50;;;;;;;0.67;0.67;;;;;;;11.23;nan;99819.38;5049516;28;20270;-70
2024/01/26 10:08:18;;;;;;;1.07;1.07;;;;;;;11.29;nan;99824.34;5049601;28;20209;-70
2024/01/26 10:10:46;;;;;;;0.60;0.60;;;;;;;11.24;nan;99826.22;5051167;28;20742;-70
2024/01/26 10:13:12;;;;;;;0.50;0.50;;;;;;;11.33;nan;99825.97;5050833;28;20223;-69
2024/01/26 10:15:39;;;;;;;0.73;0.73;;;;;;;11.38;nan;99834.38;5050313;28;20204;-70
2024/01/26 10:18:06;;;;;;;0.77;0.77;;;;;;;11.43;nan;99826.56;5050434;28;20248;-70
2024/01/26 10:20:33;;;;;;;0.87;0.87;;;;;;;11.39;nan;99836.06;5050718;28;20250;-70
2024/01/26 10:23:00;;;;;;;0.47;0.47;;;;;;;11.48;nan;99825.53;5050832;28;20216;-70
2024/01/26 10:25:28;;;;;;;0.70;0.70;;;;;;;11.43;nan;99832.53;5050757;28;20669;-69
2024/01/26 10:27:55;;;;;;;0.50;0.50;;;;;;;11.45;nan;99841.03;5050652;28;20204;-70
2024/01/26 10:30:21;;;;;;;0.53;0.53;;;;;;;11.45;nan;99842.75;5050596;28;20668;-70
2024/01/26 10:32:51;;;;;;;1.73;1.73;;;;;;;11.54;nan;99830.50;5049531;28;20607;-70
2024/01/26 10:35:19;;;;;;;4.37;0.70;;;;;;;11.55;nan;99821.94;5049443;28;20213;-68
2024/01/26 10:37:47;;;;;;;0.67;0.67;;;;;;;11.59;nan;99832.97;5049466;28;20193;-71
2024/01/26 10:40:17;;;;;;;0.77;0.77;;;;;;;11.59;nan;99828.66;5050875;28;20192;-70
2024/01/26 10:42:47;;;;;;;0.90;0.90;;;;;;;11.69;nan;99818.13;5049531;28;20216;-70
2024/01/26 10:45:15;;;;;;;0.60;0.60;;;;;;;11.78;nan;99817.91;5049840;28;20292;-70
2024/01/26 10:47:43;;;;;;;0.67;0.60;;;;;;;11.72;nan;99815.50;5049817;28;20240;-70
2024/01/26 10:50:11;;;;;;;0.60;0.60;;;;;;;11.82;nan;99824.66;5047435;28;20201;-70
2024/01/26 10:52:39;;;;;;;0.50;0.50;;;;;;;11.75;nan;99823.13;5045454;28;20199;-70
2024/01/26 10:55:07;;;;;;;1.27;1.27;;;;;;;11.75;nan;99823.13;5050268;28;20193;-70
2024/01/26 10:57:34;;;;;;;0.60;0.60;;;;;;;11.82;nan;99804.94;5049906;28;20196;-69
2024/01/26 11:00:04;;;;;;;0.50;0.50;;;;;;;11.88;nan;99824.47;5050129;28;20201;-69
2024/01/26 11:02:36;;;;;;;0.57;0.57;;;;;;;11.88;nan;99809.91;5049881;28;20299;-70
2024/01/26 11:05:07;;;;;;;0.60;0.60;;;;;;;11.95;nan;99802.84;5048369;28;20300;-70
2024/01/26 11:07:34;;;;;;;3.30;0.90;;;;;;;12.02;nan;99817.19;5049004;28;20254;-69
2024/01/26 11:10:04;;;;;;;4.77;0.77;;;;;;;12.07;nan;99810.19;5047844;28;20667;-70
2024/01/26 11:12:34;;;;;;;0.70;0.70;;;;;;;12.02;nan;99796.63;5047463;28;20203;-69
2024/01/26 11:15:08;;;;;;;0.53;0.53;;;;;;;12.04;nan;99787.16;5047315;28;20200;-71
2024/01/26 11:17:43;;;;;;;0.50;0.50;;;;;;;12.16;nan;99803.94;5047614;28;20224;-70
2024/01/26 11:20:18;;;;;;;1.00;0.73;;;;;;;12.15;nan;99797.94;5048738;28;20677;-70
2024/01/26 11:22:45;;;;;;;0.53;0.53;;;;;;;12.18;nan;99800.41;5045718;28;20238;-69
2024/01/26 11:25:21;;;;;;;0.50;0.50;;;;;;;12.21;nan;99802.09;5049401;28;20250;-69
2024/01/26 11:27:48;;;;;;;4.37;0.80;;;;;;;12.19;nan;99806.41;5047902;28;20240;-70
2024/01/26 11:30:24;;;;;;;0.60;0.60;;;;;;;12.19;nan;99804.69;5044486;28;20258;-70
2024/01/26 11:32:51;;;;;;;0.70;0.70;;;;;;;12.21;nan;99805.50;5041268;28;20677;-69
2024/01/26 11:35:19;;;;;;;0.70;0.70;;;;;;;12.22;nan;99806.31;5046410;28;20213;-70
2024/01/26 11:37:46;;;;;;;0.97;0.90;;;;;;;12.26;nan;99811.31;5046607;28;20212;-70
2024/01/26 11:40:13;;;;;;;0.60;0.60;;;;;;;12.39;nan;99802.34;5045163;28;20279;-70
2024/01/26 11:42:41;;;;;;;0.70;0.70;;;;;;;12.47;nan;99800.38;5045806;28;20274;-70
2024/01/26 11:45:08;;;;;;;0.70;0.70;;;;;;;12.55;nan;99807.84;5046248;28;20211;-69
2024/01/26 11:47:39;;;;;;;0.80;0.80;;;;;;;12.63;nan;99796.41;5045792;28;20201;-70
2024/01/26 11:50:07;;;;;;;0.60;0.60;;;;;;;12.59;nan;99794.00;5042674;28;20209;-69
2024/01/26 11:52:34;;;;;;;0.60;0.60;;;;;;;12.66;nan;99802.38;5045586;28;20207;-71
2024/01/26 11:55:02;;;;;;;0.80;0.80;;;;;;;12.67;nan;99806.59;5046306;28;20201;-71
2024/01/26 11:57:30;;;;;;;0.60;0.60;;;;;;;12.74;nan;99802.94;5043565;28;20535;-70